TPQ weather

Amado Nervo National Airport
Tepic, Nayarit, Mexico

Public forecast

Using degrees Celsius for public forecast. Weather courtesy of forecast.io.

METAR (pilot weather report)

Retrieved 2018/07/20 18:53 UTC (24 minutes ago):

MMEP 201853Z 00000KT 12SM SCT030 30/17 A3008 RMK 8/100

TAF (pilot weather forecast)

Forecast is more than 12 hours old.

Retrieved 2018/07/19 18:09 UTC (1 day ago):

TAF MMEP 191708Z 1918/2018 34005KT P6SM SCT030 FM192100 34008KT P6SM SCT030CB BKN080 TEMPO 1921/2001 5SM TSRA BKN025CB FM200600 02005KT P6SM BKN080 FM201000 00000KT 2SM BR BKN010 TEMPO 2012/2014 1/2SM FG VV003 FM201600 14010KT P6SM SCT030